Coastal Inspiration — CFN4970 — position and weather

sailwx.info

Track history (hours):
 
Tides and Currents Weather Stations Pressure Air Temp Water Temp Dewpoint Dewpoint Depression Visibility Wind Speed Wind Dir Waves Ship Positions

Coastal Inspiration

Last reported at 2018-Feb-23 17:20 UTC. Time now 2018-Feb-23 17:56 UTC.
Position N 49°13' W 123°48'.

Length 160 m; draft 5.6 m.

Type: Passenger vessel. MMSI: 316011408.

Date/timePositionNaut miles runAvg speedWind from/ knotsBaromVisibWave heightAir tempDewpointWater temp
2018-Feb-23 17:20N 49°13' W 123°48'720.9
2018-Feb-23 17:00N 49°11' W 123°38'1020.9
2018-Feb-23 16:30N 49°06' W 123°24'1020.3
2018-Feb-23 16:00N 49°00' W 123°11'2 3.9
2018-Feb-23 15:30N 49°00' W 123°08'510.0
2018-Feb-23 15:00N 49°00' W 123°16'918.7
2018-Feb-23 14:30N 49°05' W 123°28'918.4
2018-Feb-23 14:00N 49°10' W 123°39'9 1.6
2018-Feb-23 08:27N 49°12' W 123°53'818.8
2018-Feb-23 08:00N 49°12' W 123°40'1120.7
2018-Feb-23 07:30N 49°06' W 123°26'1020.4
2018-Feb-23 07:00N 49°01' W 123°14'4 7.6
2018-Feb-23 06:30N 49°00' W 123°08'4 7.9
2018-Feb-23 06:00N 48°60' W 123°14'918.9
2018-Feb-23 05:30N 49°04' W 123°26'1020.3
2018-Feb-23 05:00N 49°10' W 123°39'6 3.6
2018-Feb-23 03:19N 49°13' W 123°47'619.7
2018-Feb-23 03:00N 49°11' W 123°39'919.0
2018-Feb-23 02:30N 49°06' W 123°26'1020.4
2018-Feb-23 02:00N 49°01' W 123°13'3 6.4
2018-Feb-23 01:30N 49°00' W 123°08'3 6.8
2018-Feb-23 01:00N 48°60' W 123°13'918.6
2018-Feb-23 00:30N 49°04' W 123°26'918.6
2018-Feb-23 00:00N 49°10' W 123°37'7 4.5
2018-Feb-22 22:21N 49°13' W 123°47'720.6
2018-Feb-22 22:00N 49°10' W 123°37'1020.7
2018-Feb-22 21:30N 49°05' W 123°24'1119.4
2018-Feb-22 20:58N 49°00' W 123°09'1 2.4
2018-Feb-22 20:30N 49°00' W 123°08'510.7
2018-Feb-22 20:00N 48°60' W 123°16'1018.1
2018-Feb-22 19:28N 49°05' W 123°28'817.8
2018-Feb-22 19:00N 49°10' W 123°38'10 6.7
2018-Feb-22 17:32N 49°12' W 123°53'418.3
2018-Feb-22 17:20N 49°13' W 123°48'719.6
2018-Feb-22 17:01N 49°11' W 123°39'1019.6
2018-Feb-22 16:30N 49°06' W 123°26'1019.2
2018-Feb-22 15:58N 49°01' W 123°12'3 6.2
2018-Feb-22 15:30N 49°00' W 123°08'5 9.9
2018-Feb-22 15:00N 49°00' W 123°15'917.9
2018-Feb-22 14:30N 49°04' W 123°27'1018.6
2018-Feb-22 14:00N 49°10' W 123°39'9 1.7
2018-Feb-22 08:24N 49°12' W 123°53'717.8
2018-Feb-22 08:00N 49°12' W 123°42'1120.9
2018-Feb-22 07:30N 49°07' W 123°28'1120.8
2018-Feb-22 06:58N 49°01' W 123°13'4 7.7
2018-Feb-22 06:29N 49°00' W 123°08'3 6.6
2018-Feb-22 06:00N 49°00' W 123°13'918.7
2018-Feb-22 05:30N 49°04' W 123°26'1019.0
2018-Feb-22 05:00N 49°10' W 123°38'7 3.8
2018-Feb-22 03:14N 49°14' W 123°46'520.8
2018-Feb-22 03:00N 49°12' W 123°39'1121.4
2018-Feb-22 02:30N 49°06' W 123°25'1021.0
2018-Feb-22 02:00N 49°00' W 123°12'3 5.2
2018-Feb-22 01:30N 49°00' W 123°08'5 9.3
2018-Feb-22 01:00N 49°00' W 123°15'918.4
2018-Feb-22 00:30N 49°05' W 123°27'918.6
2018-Feb-22 00:00N 49°10' W 123°39'6 3.7
2018-Feb-21 22:22N 49°13' W 123°47'617.2
2018-Feb-21 22:00N 49°11' W 123°38'1019.1
2018-Feb-21 21:30N 49°06' W 123°26'1019.6
2018-Feb-21 21:00N 49°01' W 123°13'3 6.3
2018-Feb-21 20:30N 49°00' W 123°08'4 7.1
2018-Feb-21 19:59N 49°00' W 123°13'918.9
2018-Feb-21 19:30N 49°04' W 123°26'918.8
2018-Feb-21 19:00N 49°10' W 123°38'10 7.5
2018-Feb-21 17:38N 49°11' W 123°53'417.6
2018-Feb-21 17:25N 49°13' W 123°49'819.2
2018-Feb-21 16:59N 49°11' W 123°37'1020.3
2018-Feb-21 16:30N 49°06' W 123°24'1020.1
2018-Feb-21 16:00N 49°00' W 123°11'2 4.2
2018-Feb-21 15:30N 49°00' W 123°08'510.4
2018-Feb-21 15:01N 49°00' W 123°16'917.9
2018-Feb-21 14:30N 49°05' W 123°28'918.2
2018-Feb-21 14:01N 49°10' W 123°39'7 1.2
2018-Feb-21 08:21N 49°13' W 123°48'719.3
2018-Feb-21 08:00N 49°11' W 123°39'1019.4
2018-Feb-21 07:30N 49°06' W 123°25'919.0
2018-Feb-21 07:00N 49°01' W 123°13'4 7.3
2018-Feb-21 06:30N 49°00' W 123°08'4 8.8
2018-Feb-21 06:00N 49°00' W 123°15'918.7
2018-Feb-21 05:30N 49°04' W 123°27'919.2
2018-Feb-21 05:00N 49°10' W 123°39'6 3.6
2018-Feb-21 03:21N 49°14' W 123°46'719.4
2018-Feb-21 03:00N 49°10' W 123°37'1019.2
2018-Feb-21 02:30N 49°06' W 123°24'1018.7
2018-Feb-21 01:59N 49°00' W 123°12'3 5.3
2018-Feb-21 01:30N 49°00' W 123°08'5 9.6
2018-Feb-21 01:00N 48°59' W 123°15'816.5
2018-Feb-21 00:31N 49°04' W 123°25'1019.1
2018-Feb-20 23:59N 49°10' W 123°37'6 3.4
2018-Feb-20 22:11N 49°13' W 123°45'420.3
2018-Feb-20 22:00N 49°11' W 123°40'1020.4
2018-Feb-20 21:30N 49°06' W 123°27'1019.9
2018-Feb-20 21:00N 49°01' W 123°14'4 7.9
2018-Feb-20 20:30N 49°00' W 123°08'3 5.0
2018-Feb-20 20:00N 48°60' W 123°12'1019.3
2018-Feb-20 19:29N 49°04' W 123°25'919.7
2018-Feb-20 19:01N 49°09' W 123°37'8 4.8
2018-Feb-20 17:19N 49°13' W 123°48'620.4
2018-Feb-20 17:00N 49°11' W 123°39'1020.4
2018-Feb-20 16:31N 49°06' W 123°25'1020.6
2018-Feb-20 16:00N 49°01' W 123°12'2 4.7
2018-Feb-20 15:29N 49°00' W 123°08'5 9.8
2018-Feb-20 15:00N 49°00' W 123°15'918.9
2018-Feb-20 14:30N 49°05' W 123°28'1019.4
2018-Feb-20 13:59N 49°11' W 123°41'6 1.0
2018-Feb-20 08:17N 49°13' W 123°49'619.9
2018-Feb-20 08:00N 49°11' W 123°40'1020.2
2018-Feb-20 07:30N 49°06' W 123°27'1020.1
2018-Feb-20 06:59N 49°01' W 123°13'4 7.5
2018-Feb-20 06:30N 49°00' W 123°08'3 5.0
2018-Feb-20 06:00N 49°00' W 123°12'1019.6
2018-Feb-20 05:30N 49°04' W 123°25'1019.5
2018-Feb-20 04:59N 49°10' W 123°38'6 3.4
2018-Feb-20 03:14N 49°13' W 123°45'519.9
2018-Feb-20 03:00N 49°11' W 123°39'1019.0
2018-Feb-20 02:30N 49°06' W 123°26'1019.2
2018-Feb-20 01:59N 49°01' W 123°14'4 8.2
2018-Feb-20 01:30N 49°00' W 123°08'2 4.7
2018-Feb-20 01:00N 49°00' W 123°12'918.8
2018-Feb-20 00:30N 49°03' W 123°25'1119.7
2018-Feb-19 23:58N 49°10' W 123°38'6 3.7
2018-Feb-19 22:15N 49°13' W 123°46'520.7
2018-Feb-19 21:59N 49°11' W 123°38'1020.3
2018-Feb-19 21:30N 49°06' W 123°25'1020.2
2018-Feb-19 21:00N 49°01' W 123°12'3 5.4
2018-Feb-19 20:30N 49°00' W 123°08'3 5.9
2018-Feb-19 20:00N 49°00' W 123°12'1019.6
2018-Feb-19 19:30N 49°04' W 123°26'1019.8
2018-Feb-19 19:00N 49°10' W 123°38'7 4.6
2018-Feb-19 17:23N 49°13' W 123°48'819.9
2018-Feb-19 17:00N 49°11' W 123°37'1019.8
2018-Feb-19 16:30N 49°06' W 123°24'1019.1
2018-Feb-19 16:01N 49°01' W 123°12'3 5.7
2018-Feb-19 15:30N 49°00' W 123°08'611.4
2018-Feb-19 14:58N 49°01' W 123°17'919.5
2018-Feb-19 14:30N 49°06' W 123°29'1020.4
2018-Feb-19 13:59N 49°11' W 123°43'4 0.8
2018-Feb-19 08:12N 49°13' W 123°49'420.6
2018-Feb-19 08:00N 49°12' W 123°43'1121.4
2018-Feb-19 07:30N 49°07' W 123°29'1120.7
2018-Feb-19 07:00N 49°01' W 123°15'5 9.6
2018-Feb-19 06:30N 49°00' W 123°08'3 6.1
2018-Feb-19 06:00N 48°60' W 123°12'1019.4
2018-Feb-19 05:30N 49°04' W 123°26'17 8.1
2018-Feb-19 03:23N 49°13' W 123°48'820.1
2018-Feb-19 03:00N 49°10' W 123°37'1020.0
2018-Feb-19 02:30N 49°05' W 123°24'1119.9
2018-Feb-19 01:57N 48°60' W 123°09'1 1.9
2018-Feb-19 01:30N 49°00' W 123°08'3 6.2
2018-Feb-19 00:59N 48°60' W 123°13'919.3
2018-Feb-19 00:30N 49°04' W 123°26'19 8.4
2018-Feb-18 22:18N 49°13' W 123°50'620.6
2018-Feb-18 22:00N 49°11' W 123°41'1021.3
2018-Feb-18 21:30N 49°06' W 123°27'1020.5
2018-Feb-18 21:00N 49°01' W 123°14'4 8.0
2018-Feb-18 20:30N 49°00' W 123°08'3 5.1
2018-Feb-18 20:00N 49°00' W 123°12'1019.8
2018-Feb-18 19:30N 49°04' W 123°25'21 4.4
2018-Feb-18 14:48N 49°15' W 123°52'3 0.2
2018-Feb-18 03:27N 49°13' W 123°49'1020.1
2018-Feb-18 02:58N 49°10' W 123°36'920.2
2018-Feb-18 02:30N 49°05' W 123°23'1019.4
2018-Feb-18 02:00N 49°00' W 123°10'1 3.0
2018-Feb-18 01:30N 49°00' W 123°08'5 9.1
2018-Feb-18 01:00N 49°00' W 123°15'1019.6
2018-Feb-18 00:28N 49°05' W 123°29'1618.4
2018-Feb-17 23:37N 49°13' W 123°49'1 0.8
2018-Feb-17 22:15N 49°13' W 123°48'620.2
2018-Feb-17 21:58N 49°11' W 123°40'1020.3
2018-Feb-17 21:29N 49°06' W 123°26'1019.9
2018-Feb-17 20:59N 49°00' W 123°14'4 7.5
2018-Feb-17 20:27N 49°00' W 123°08'1 3.1
2018-Feb-17 20:01N 49°00' W 123°10'1019.7
2018-Feb-17 19:30N 49°04' W 123°24'19 9.1
2018-Feb-17 17:24N 49°13' W 123°50'718.6
2018-Feb-17 17:00N 49°11' W 123°39'1019.4
2018-Feb-17 16:30N 49°07' W 123°26'919.1
2018-Feb-17 16:00N 49°01' W 123°14'4 8.6
2018-Feb-17 15:30N 49°00' W 123°08'3 6.9
2018-Feb-17 15:00N 49°00' W 123°13'1019.1
2018-Feb-17 14:30N 49°05' W 123°26'1419.4
2018-Feb-17 13:48N 49°12' W 123°44'4 0.8
2018-Feb-17 08:19N 49°13' W 123°50'720.6
2018-Feb-17 08:00N 49°11' W 123°41'1121.2
2018-Feb-17 07:30N 49°06' W 123°26'1020.6
2018-Feb-17 07:00N 49°01' W 123°13'3 6.5
2018-Feb-17 06:31N 49°00' W 123°08'3 6.8
2018-Feb-17 06:00N 48°60' W 123°13'1019.8
2018-Feb-17 05:30N 49°04' W 123°27'1819.4
2018-Feb-17 04:33N 49°13' W 123°52'3 2.7
2018-Feb-17 03:24N 49°13' W 123°47'819.6
2018-Feb-17 03:00N 49°10' W 123°36'1019.9
2018-Feb-17 02:30N 49°05' W 123°23'1019.1
2018-Feb-17 01:59N 48°60' W 123°10'1 2.8
2018-Feb-17 01:29N 49°00' W 123°08'3 6.8
2018-Feb-17 01:00N 48°60' W 123°13'1020.0
2018-Feb-17 00:30N 49°04' W 123°27'17 7.8
2018-Feb-16 22:16N 49°13' W 123°49'620.5
2018-Feb-16 21:58N 49°11' W 123°41'1020.7
2018-Feb-16 21:30N 49°07' W 123°28'1120.6
2018-Feb-16 20:57N 49°01' W 123°13'3 7.3
2018-Feb-16 20:30N 49°00' W 123°08'2 4.2
2018-Feb-16 20:00N 48°60' W 123°11'1019.8
2018-Feb-16 19:30N 49°04' W 123°25'19 8.9
2018-Feb-16 17:24N 49°13' W 123°50'818.9
2018-Feb-16 17:00N 49°11' W 123°39'919.4
2018-Feb-16 16:30N 49°06' W 123°26'1019.2
2018-Feb-16 16:00N 49°01' W 123°14'4 8.5
2018-Feb-16 15:30N 49°00' W 123°08'3 5.2
2018-Feb-16 15:00N 49°00' W 123°12'1019.8
2018-Feb-16 14:30N 49°04' W 123°26'1219.6
2018-Feb-16 13:54N 49°11' W 123°41'8 1.5
2018-Feb-16 08:45N 49°11' W 123°53'517.9
2018-Feb-16 08:28N 49°13' W 123°46'1020.9
2018-Feb-16 08:00N 49°08' W 123°33'1020.7
2018-Feb-16 07:30N 49°03' W 123°19'815.1
2018-Feb-16 06:59N 49°00' W 123°08'1 1.2
2018-Feb-16 06:31N 48°60' W 123°09'815.9
2018-Feb-16 06:00N 49°02' W 123°21'20 8.5
2018-Feb-16 03:38N 49°13' W 123°46'320.4
2018-Feb-16 03:28N 49°13' W 123°41'1020.0
2018-Feb-16 02:59N 49°08' W 123°29'1020.3
2018-Feb-16 02:30N 49°02' W 123°17'611.9
2018-Feb-16 02:00N 49°00' W 123°08'0 0.0
2018-Feb-16 01:30N 49°00' W 123°08'3 5.0
2018-Feb-16 01:00N 48°60' W 123°12'1020.2
2018-Feb-16 00:30N 49°04' W 123°26'17 7.9
2018-Feb-15 22:18N 49°13' W 123°48'619.5
2018-Feb-15 21:59N 49°11' W 123°39'919.6
2018-Feb-15 21:30N 49°06' W 123°27'1019.6
2018-Feb-15 20:59N 49°01' W 123°14'4 8.1
2018-Feb-15 20:30N 49°00' W 123°08'2 5.0
2018-Feb-15 20:00N 49°00' W 123°12'1019.3
2018-Feb-15 19:30N 49°04' W 123°25'18 8.3
2018-Feb-15 17:22N 49°13' W 123°48'719.7
2018-Feb-15 17:00N 49°10' W 123°38'1020.3
2018-Feb-15 16:30N 49°06' W 123°25'1020.0
2018-Feb-15 16:00N 49°00' W 123°12'3 5.2
2018-Feb-15 15:30N 49°00' W 123°08'3 6.7
2018-Feb-15 15:00N 49°00' W 123°13'1019.9
2018-Feb-15 14:30N 49°05' W 123°27'1220.0
2018-Feb-15 13:53N 49°11' W 123°42'5 0.9
2018-Feb-15 08:35N 49°13' W 123°49'220.1
2018-Feb-15 08:30N 49°13' W 123°46'1020.3
2018-Feb-15 07:59N 49°09' W 123°32'1020.1
2018-Feb-15 07:30N 49°03' W 123°20'816.6
2018-Feb-15 07:00N 49°00' W 123°08'0 0.3
2018-Feb-15 06:30N 49°00' W 123°08'4 8.5
2018-Feb-15 06:00N 48°60' W 123°15'918.9
2018-Feb-15 05:30N 49°04' W 123°27'18 8.9
2018-Feb-15 03:32N 49°13' W 123°51'219.8
2018-Feb-15 03:27N 49°13' W 123°48'919.6
2018-Feb-15 03:00N 49°10' W 123°36'1019.9
2018-Feb-15 02:30N 49°05' W 123°22'1018.7
2018-Feb-15 01:57N 48°60' W 123°09'1 1.6
2018-Feb-15 01:30N 49°00' W 123°08'3 6.8
2018-Feb-15 01:00N 49°00' W 123°13'1019.5
2018-Feb-15 00:30N 49°04' W 123°27'17 7.9
2018-Feb-14 22:19N 49°13' W 123°49'719.9
2018-Feb-14 21:57N 49°10' W 123°39'920.0
2018-Feb-14 21:30N 49°06' W 123°26'1019.7
2018-Feb-14 21:00N 49°00' W 123°14'4 8.5
2018-Feb-14 20:30N 49°00' W 123°08'2 3.8
2018-Feb-14 19:59N 48°60' W 123°11'1019.8
2018-Feb-14 19:30N 49°03' W 123°25'18 8.8
2018-Feb-14 17:24N 49°13' W 123°48'718.0
2018-Feb-14 17:00N 49°10' W 123°38'918.8
2018-Feb-14 16:30N 49°06' W 123°26'1018.7
2018-Feb-14 16:00N 49°01' W 123°13'4 7.3
2018-Feb-14 15:30N 49°00' W 123°08'4 7.6
2018-Feb-14 15:01N 49°00' W 123°14'1019.1
2018-Feb-14 14:30N 49°04' W 123°27'17 2.8
2018-Feb-14 08:25N 49°13' W 123°49'921.2
2018-Feb-14 08:00N 49°10' W 123°36'1122.1
2018-Feb-14 07:30N 49°04' W 123°22'1019.9
2018-Feb-14 07:00N 49°00' W 123°08'0 0.5
2018-Feb-14 06:30N 49°00' W 123°08'510.5
2018-Feb-14 06:00N 49°00' W 123°16'1019.3
2018-Feb-14 05:30N 49°05' W 123°28'13 5.8
2018-Feb-14 03:13N 49°13' W 123°45'520.1
2018-Feb-14 02:59N 49°11' W 123°38'1020.2
2018-Feb-14 02:30N 49°06' W 123°26'1019.5
2018-Feb-14 02:00N 49°01' W 123°13'4 7.0
2018-Feb-14 01:30N 49°00' W 123°08'3 7.1
2018-Feb-14 01:00N 49°00' W 123°13'1019.9
2018-Feb-14 00:30N 49°05' W 123°27'14 6.2
2018-Feb-13 22:12N 49°13' W 123°45'420.2
2018-Feb-13 22:00N 49°11' W 123°39'1020.2
2018-Feb-13 21:30N 49°06' W 123°26'1019.7
2018-Feb-13 21:00N 49°01' W 123°13'3 6.5
2018-Feb-13 20:30N 49°00' W 123°08'4 8.8
2018-Feb-13 20:00N 49°00' W 123°15'918.1
2018-Feb-13 19:30N 49°04' W 123°27'1718.5
2018-Feb-13 18:36N 49°13' W 123°49'  
Track history (hours):
 
Tides and Currents Weather Stations Pressure Air Temp Water Temp Dewpoint Dewpoint Depression Visibility Wind Speed Wind Dir Waves Ship Positions

Coastal Inspiration

Last reported at 2018-Feb-23 17:20 UTC. Time now 2018-Feb-23 17:56 UTC.
Position N 49°13' W 123°48'.

Length 160 m; draft 5.6 m.

Type: Passenger vessel. MMSI: 316011408.

Date/timePositionNaut miles runAvg speedWind from/ knotsBaromVisibWave heightAir tempDewpointWater temp
2018-Feb-23 17:20N 49°13' W 123°48'720.9
2018-Feb-23 17:00N 49°11' W 123°38'1020.9
2018-Feb-23 16:30N 49°06' W 123°24'1020.3
2018-Feb-23 16:00N 49°00' W 123°11'2 3.9
2018-Feb-23 15:30N 49°00' W 123°08'510.0
2018-Feb-23 15:00N 49°00' W 123°16'918.7
2018-Feb-23 14:30N 49°05' W 123°28'918.4
2018-Feb-23 14:00N 49°10' W 123°39'9 1.6
2018-Feb-23 08:27N 49°12' W 123°53'818.8
2018-Feb-23 08:00N 49°12' W 123°40'1120.7
2018-Feb-23 07:30N 49°06' W 123°26'1020.4
2018-Feb-23 07:00N 49°01' W 123°14'4 7.6
2018-Feb-23 06:30N 49°00' W 123°08'4 7.9
2018-Feb-23 06:00N 48°60' W 123°14'918.9
2018-Feb-23 05:30N 49°04' W 123°26'1020.3
2018-Feb-23 05:00N 49°10' W 123°39'6 3.6
2018-Feb-23 03:19N 49°13' W 123°47'619.7
2018-Feb-23 03:00N 49°11' W 123°39'919.0
2018-Feb-23 02:30N 49°06' W 123°26'1020.4
2018-Feb-23 02:00N 49°01' W 123°13'3 6.4
2018-Feb-23 01:30N 49°00' W 123°08'3 6.8
2018-Feb-23 01:00N 48°60' W 123°13'918.6
2018-Feb-23 00:30N 49°04' W 123°26'918.6
2018-Feb-23 00:00N 49°10' W 123°37'7 4.5
2018-Feb-22 22:21N 49°13' W 123°47'720.6
2018-Feb-22 22:00N 49°10' W 123°37'1020.7
2018-Feb-22 21:30N 49°05' W 123°24'1119.4
2018-Feb-22 20:58N 49°00' W 123°09'1 2.4
2018-Feb-22 20:30N 49°00' W 123°08'510.7
2018-Feb-22 20:00N 48°60' W 123°16'1018.1
2018-Feb-22 19:28N 49°05' W 123°28'817.8
2018-Feb-22 19:00N 49°10' W 123°38'10 6.7
2018-Feb-22 17:32N 49°12' W 123°53'418.3
2018-Feb-22 17:20N 49°13' W 123°48'719.6
2018-Feb-22 17:01N 49°11' W 123°39'1019.6
2018-Feb-22 16:30N 49°06' W 123°26'1019.2
2018-Feb-22 15:58N 49°01' W 123°12'3 6.2
2018-Feb-22 15:30N 49°00' W 123°08'5 9.9
2018-Feb-22 15:00N 49°00' W 123°15'917.9
2018-Feb-22 14:30N 49°04' W 123°27'1018.6
2018-Feb-22 14:00N 49°10' W 123°39'9 1.7
2018-Feb-22 08:24N 49°12' W 123°53'717.8
2018-Feb-22 08:00N 49°12' W 123°42'1120.9
2018-Feb-22 07:30N 49°07' W 123°28'1120.8
2018-Feb-22 06:58N 49°01' W 123°13'4 7.7
2018-Feb-22 06:29N 49°00' W 123°08'3 6.6
2018-Feb-22 06:00N 49°00' W 123°13'918.7
2018-Feb-22 05:30N 49°04' W 123°26'1019.0
2018-Feb-22 05:00N 49°10' W 123°38'7 3.8
2018-Feb-22 03:14N 49°14' W 123°46'520.8
2018-Feb-22 03:00N 49°12' W 123°39'1121.4
2018-Feb-22 02:30N 49°06' W 123°25'1021.0
2018-Feb-22 02:00N 49°00' W 123°12'3 5.2
2018-Feb-22 01:30N 49°00' W 123°08'5 9.3
2018-Feb-22 01:00N 49°00' W 123°15'918.4
2018-Feb-22 00:30N 49°05' W 123°27'918.6
2018-Feb-22 00:00N 49°10' W 123°39'6 3.7
2018-Feb-21 22:22N 49°13' W 123°47'617.2
2018-Feb-21 22:00N 49°11' W 123°38'1019.1
2018-Feb-21 21:30N 49°06' W 123°26'1019.6
2018-Feb-21 21:00N 49°01' W 123°13'3 6.3
2018-Feb-21 20:30N 49°00' W 123°08'4 7.1
2018-Feb-21 19:59N 49°00' W 123°13'918.9
2018-Feb-21 19:30N 49°04' W 123°26'918.8
2018-Feb-21 19:00N 49°10' W 123°38'10 7.5
2018-Feb-21 17:38N 49°11' W 123°53'417.6
2018-Feb-21 17:25N 49°13' W 123°49'819.2
2018-Feb-21 16:59N 49°11' W 123°37'1020.3
2018-Feb-21 16:30N 49°06' W 123°24'1020.1
2018-Feb-21 16:00N 49°00' W 123°11'2 4.2
2018-Feb-21 15:30N 49°00' W 123°08'510.4
2018-Feb-21 15:01N 49°00' W 123°16'917.9
2018-Feb-21 14:30N 49°05' W 123°28'918.2
2018-Feb-21 14:01N 49°10' W 123°39'7 1.2
2018-Feb-21 08:21N 49°13' W 123°48'719.3
2018-Feb-21 08:00N 49°11' W 123°39'1019.4
2018-Feb-21 07:30N 49°06' W 123°25'919.0
2018-Feb-21 07:00N 49°01' W 123°13'4 7.3
2018-Feb-21 06:30N 49°00' W 123°08'4 8.8
2018-Feb-21 06:00N 49°00' W 123°15'918.7
2018-Feb-21 05:30N 49°04' W 123°27'919.2
2018-Feb-21 05:00N 49°10' W 123°39'6 3.6
2018-Feb-21 03:21N 49°14' W 123°46'719.4
2018-Feb-21 03:00N 49°10' W 123°37'1019.2
2018-Feb-21 02:30N 49°06' W 123°24'1018.7
2018-Feb-21 01:59N 49°00' W 123°12'3 5.3
2018-Feb-21 01:30N 49°00' W 123°08'5 9.6
2018-Feb-21 01:00N 48°59' W 123°15'816.5
2018-Feb-21 00:31N 49°04' W 123°25'1019.1
2018-Feb-20 23:59N 49°10' W 123°37'6 3.4
2018-Feb-20 22:11N 49°13' W 123°45'420.3
2018-Feb-20 22:00N 49°11' W 123°40'1020.4
2018-Feb-20 21:30N 49°06' W 123°27'1019.9
2018-Feb-20 21:00N 49°01' W 123°14'4 7.9
2018-Feb-20 20:30N 49°00' W 123°08'3 5.0
2018-Feb-20 20:00N 48°60' W 123°12'1019.3
2018-Feb-20 19:29N 49°04' W 123°25'919.7
2018-Feb-20 19:01N 49°09' W 123°37'8 4.8
2018-Feb-20 17:19N 49°13' W 123°48'620.4
2018-Feb-20 17:00N 49°11' W 123°39'1020.4
2018-Feb-20 16:31N 49°06' W 123°25'1020.6
2018-Feb-20 16:00N 49°01' W 123°12'2 4.7
2018-Feb-20 15:29N 49°00' W 123°08'5 9.8
2018-Feb-20 15:00N 49°00' W 123°15'918.9
2018-Feb-20 14:30N 49°05' W 123°28'1019.4
2018-Feb-20 13:59N 49°11' W 123°41'6 1.0
2018-Feb-20 08:17N 49°13' W 123°49'619.9
2018-Feb-20 08:00N 49°11' W 123°40'1020.2
2018-Feb-20 07:30N 49°06' W 123°27'1020.1
2018-Feb-20 06:59N 49°01' W 123°13'4 7.5
2018-Feb-20 06:30N 49°00' W 123°08'3 5.0
2018-Feb-20 06:00N 49°00' W 123°12'1019.6
2018-Feb-20 05:30N 49°04' W 123°25'1019.5
2018-Feb-20 04:59N 49°10' W 123°38'6 3.4
2018-Feb-20 03:14N 49°13' W 123°45'519.9
2018-Feb-20 03:00N 49°11' W 123°39'1019.0
2018-Feb-20 02:30N 49°06' W 123°26'1019.2
2018-Feb-20 01:59N 49°01' W 123°14'4 8.2
2018-Feb-20 01:30N 49°00' W 123°08'2 4.7
2018-Feb-20 01:00N 49°00' W 123°12'918.8
2018-Feb-20 00:30N 49°03' W 123°25'1119.7
2018-Feb-19 23:58N 49°10' W 123°38'6 3.7
2018-Feb-19 22:15N 49°13' W 123°46'520.7
2018-Feb-19 21:59N 49°11' W 123°38'1020.3
2018-Feb-19 21:30N 49°06' W 123°25'1020.2
2018-Feb-19 21:00N 49°01' W 123°12'3 5.4
2018-Feb-19 20:30N 49°00' W 123°08'3 5.9
2018-Feb-19 20:00N 49°00' W 123°12'1019.6
2018-Feb-19 19:30N 49°04' W 123°26'1019.8
2018-Feb-19 19:00N 49°10' W 123°38'7 4.6
2018-Feb-19 17:23N 49°13' W 123°48'819.9
2018-Feb-19 17:00N 49°11' W 123°37'1019.8
2018-Feb-19 16:30N 49°06' W 123°24'1019.1
2018-Feb-19 16:01N 49°01' W 123°12'3 5.7
2018-Feb-19 15:30N 49°00' W 123°08'611.4
2018-Feb-19 14:58N 49°01' W 123°17'919.5
2018-Feb-19 14:30N 49°06' W 123°29'1020.4
2018-Feb-19 13:59N 49°11' W 123°43'4 0.8
2018-Feb-19 08:12N 49°13' W 123°49'420.6
2018-Feb-19 08:00N 49°12' W 123°43'1121.4
2018-Feb-19 07:30N 49°07' W 123°29'1120.7
2018-Feb-19 07:00N 49°01' W 123°15'5 9.6
2018-Feb-19 06:30N 49°00' W 123°08'3 6.1
2018-Feb-19 06:00N 48°60' W 123°12'1019.4
2018-Feb-19 05:30N 49°04' W 123°26'17 8.1
2018-Feb-19 03:23N 49°13' W 123°48'820.1
2018-Feb-19 03:00N 49°10' W 123°37'1020.0
2018-Feb-19 02:30N 49°05' W 123°24'1119.9
2018-Feb-19 01:57N 48°60' W 123°09'1 1.9
2018-Feb-19 01:30N 49°00' W 123°08'3 6.2
2018-Feb-19 00:59N 48°60' W 123°13'919.3
2018-Feb-19 00:30N 49°04' W 123°26'19 8.4
2018-Feb-18 22:18N 49°13' W 123°50'620.6
2018-Feb-18 22:00N 49°11' W 123°41'1021.3
2018-Feb-18 21:30N 49°06' W 123°27'1020.5
2018-Feb-18 21:00N 49°01' W 123°14'4 8.0
2018-Feb-18 20:30N 49°00' W 123°08'3 5.1
2018-Feb-18 20:00N 49°00' W 123°12'1019.8
2018-Feb-18 19:30N 49°04' W 123°25'21 4.4
2018-Feb-18 14:48N 49°15' W 123°52'3 0.2
2018-Feb-18 03:27N 49°13' W 123°49'1020.1
2018-Feb-18 02:58N 49°10' W 123°36'920.2
2018-Feb-18 02:30N 49°05' W 123°23'1019.4
2018-Feb-18 02:00N 49°00' W 123°10'1 3.0
2018-Feb-18 01:30N 49°00' W 123°08'5 9.1
2018-Feb-18 01:00N 49°00' W 123°15'1019.6
2018-Feb-18 00:28N 49°05' W 123°29'1618.4
2018-Feb-17 23:37N 49°13' W 123°49'1 0.8
2018-Feb-17 22:15N 49°13' W 123°48'620.2
2018-Feb-17 21:58N 49°11' W 123°40'1020.3
2018-Feb-17 21:29N 49°06' W 123°26'1019.9
2018-Feb-17 20:59N 49°00' W 123°14'4 7.5
2018-Feb-17 20:27N 49°00' W 123°08'1 3.1
2018-Feb-17 20:01N 49°00' W 123°10'1019.7
2018-Feb-17 19:30N 49°04' W 123°24'19 9.1
2018-Feb-17 17:24N 49°13' W 123°50'718.6
2018-Feb-17 17:00N 49°11' W 123°39'1019.4
2018-Feb-17 16:30N 49°07' W 123°26'919.1
2018-Feb-17 16:00N 49°01' W 123°14'4 8.6
2018-Feb-17 15:30N 49°00' W 123°08'3 6.9
2018-Feb-17 15:00N 49°00' W 123°13'1019.1
2018-Feb-17 14:30N 49°05' W 123°26'1419.4
2018-Feb-17 13:48N 49°12' W 123°44'4 0.8
2018-Feb-17 08:19N 49°13' W 123°50'720.6
2018-Feb-17 08:00N 49°11' W 123°41'1121.2
2018-Feb-17 07:30N 49°06' W 123°26'1020.6
2018-Feb-17 07:00N 49°01' W 123°13'3 6.5
2018-Feb-17 06:31N 49°00' W 123°08'3 6.8
2018-Feb-17 06:00N 48°60' W 123°13'1019.8
2018-Feb-17 05:30N 49°04' W 123°27'1819.4
2018-Feb-17 04:33N 49°13' W 123°52'3 2.7
2018-Feb-17 03:24N 49°13' W 123°47'819.6
2018-Feb-17 03:00N 49°10' W 123°36'1019.9
2018-Feb-17 02:30N 49°05' W 123°23'1019.1
2018-Feb-17 01:59N 48°60' W 123°10'1 2.8
2018-Feb-17 01:29N 49°00' W 123°08'3 6.8
2018-Feb-17 01:00N 48°60' W 123°13'1020.0
2018-Feb-17 00:30N 49°04' W 123°27'17 7.8
2018-Feb-16 22:16N 49°13' W 123°49'620.5
2018-Feb-16 21:58N 49°11' W 123°41'1020.7
2018-Feb-16 21:30N 49°07' W 123°28'1120.6
2018-Feb-16 20:57N 49°01' W 123°13'3 7.3
2018-Feb-16 20:30N 49°00' W 123°08'2 4.2
2018-Feb-16 20:00N 48°60' W 123°11'1019.8
2018-Feb-16 19:30N 49°04' W 123°25'19 8.9
2018-Feb-16 17:24N 49°13' W 123°50'818.9
2018-Feb-16 17:00N 49°11' W 123°39'919.4
2018-Feb-16 16:30N 49°06' W 123°26'1019.2
2018-Feb-16 16:00N 49°01' W 123°14'4 8.5
2018-Feb-16 15:30N 49°00' W 123°08'3 5.2
2018-Feb-16 15:00N 49°00' W 123°12'1019.8
2018-Feb-16 14:30N 49°04' W 123°26'1219.6
2018-Feb-16 13:54N 49°11' W 123°41'8 1.5
2018-Feb-16 08:45N 49°11' W 123°53'517.9
2018-Feb-16 08:28N 49°13' W 123°46'1020.9
2018-Feb-16 08:00N 49°08' W 123°33'1020.7
2018-Feb-16 07:30N 49°03' W 123°19'815.1
2018-Feb-16 06:59N 49°00' W 123°08'1 1.2
2018-Feb-16 06:31N 48°60' W 123°09'815.9
2018-Feb-16 06:00N 49°02' W 123°21'20 8.5
2018-Feb-16 03:38N 49°13' W 123°46'320.4
2018-Feb-16 03:28N 49°13' W 123°41'1020.0
2018-Feb-16 02:59N 49°08' W 123°29'1020.3
2018-Feb-16 02:30N 49°02' W 123°17'611.9
2018-Feb-16 02:00N 49°00' W 123°08'0 0.0
2018-Feb-16 01:30N 49°00' W 123°08'3 5.0
2018-Feb-16 01:00N 48°60' W 123°12'1020.2
2018-Feb-16 00:30N 49°04' W 123°26'17 7.9
2018-Feb-15 22:18N 49°13' W 123°48'619.5
2018-Feb-15 21:59N 49°11' W 123°39'919.6
2018-Feb-15 21:30N 49°06' W 123°27'1019.6
2018-Feb-15 20:59N 49°01' W 123°14'4 8.1
2018-Feb-15 20:30N 49°00' W 123°08'2 5.0
2018-Feb-15 20:00N 49°00' W 123°12'1019.3
2018-Feb-15 19:30N 49°04' W 123°25'18 8.3
2018-Feb-15 17:22N 49°13' W 123°48'719.7
2018-Feb-15 17:00N 49°10' W 123°38'1020.3
2018-Feb-15 16:30N 49°06' W 123°25'1020.0
2018-Feb-15 16:00N 49°00' W 123°12'3 5.2
2018-Feb-15 15:30N 49°00' W 123°08'3 6.7
2018-Feb-15 15:00N 49°00' W 123°13'1019.9
2018-Feb-15 14:30N 49°05' W 123°27'1220.0
2018-Feb-15 13:53N 49°11' W 123°42'5 0.9
2018-Feb-15 08:35N 49°13' W 123°49'220.1
2018-Feb-15 08:30N 49°13' W 123°46'1020.3
2018-Feb-15 07:59N 49°09' W 123°32'1020.1
2018-Feb-15 07:30N 49°03' W 123°20'816.6
2018-Feb-15 07:00N 49°00' W 123°08'0 0.3
2018-Feb-15 06:30N 49°00' W 123°08'4 8.5
2018-Feb-15 06:00N 48°60' W 123°15'918.9
2018-Feb-15 05:30N 49°04' W 123°27'18 8.9
2018-Feb-15 03:32N 49°13' W 123°51'219.8
2018-Feb-15 03:27N 49°13' W 123°48'919.6
2018-Feb-15 03:00N 49°10' W 123°36'1019.9
2018-Feb-15 02:30N 49°05' W 123°22'1018.7
2018-Feb-15 01:57N 48°60' W 123°09'1 1.6
2018-Feb-15 01:30N 49°00' W 123°08'3 6.8
2018-Feb-15 01:00N 49°00' W 123°13'1019.5
2018-Feb-15 00:30N 49°04' W 123°27'17 7.9
2018-Feb-14 22:19N 49°13' W 123°49'719.9
2018-Feb-14 21:57N 49°10' W 123°39'920.0
2018-Feb-14 21:30N 49°06' W 123°26'1019.7
2018-Feb-14 21:00N 49°00' W 123°14'4 8.5
2018-Feb-14 20:30N 49°00' W 123°08'2 3.8
2018-Feb-14 19:59N 48°60' W 123°11'1019.8
2018-Feb-14 19:30N 49°03' W 123°25'18 8.8
2018-Feb-14 17:24N 49°13' W 123°48'718.0
2018-Feb-14 17:00N 49°10' W 123°38'918.8
2018-Feb-14 16:30N 49°06' W 123°26'1018.7
2018-Feb-14 16:00N 49°01' W 123°13'4 7.3
2018-Feb-14 15:30N 49°00' W 123°08'4 7.6
2018-Feb-14 15:01N 49°00' W 123°14'1019.1
2018-Feb-14 14:30N 49°04' W 123°27'17 2.8
2018-Feb-14 08:25N 49°13' W 123°49'921.2
2018-Feb-14 08:00N 49°10' W 123°36'1122.1
2018-Feb-14 07:30N 49°04' W 123°22'1019.9
2018-Feb-14 07:00N 49°00' W 123°08'0 0.5
2018-Feb-14 06:30N 49°00' W 123°08'510.5
2018-Feb-14 06:00N 49°00' W 123°16'1019.3
2018-Feb-14 05:30N 49°05' W 123°28'13 5.8
2018-Feb-14 03:13N 49°13' W 123°45'520.1
2018-Feb-14 02:59N 49°11' W 123°38'1020.2
2018-Feb-14 02:30N 49°06' W 123°26'1019.5
2018-Feb-14 02:00N 49°01' W 123°13'4 7.0
2018-Feb-14 01:30N 49°00' W 123°08'3 7.1
2018-Feb-14 01:00N 49°00' W 123°13'1019.9
2018-Feb-14 00:30N 49°05' W 123°27'14 6.2
2018-Feb-13 22:12N 49°13' W 123°45'420.2
2018-Feb-13 22:00N 49°11' W 123°39'1020.2
2018-Feb-13 21:30N 49°06' W 123°26'1019.7
2018-Feb-13 21:00N 49°01' W 123°13'3 6.5
2018-Feb-13 20:30N 49°00' W 123°08'4 8.8
2018-Feb-13 20:00N 49°00' W 123°15'918.1
2018-Feb-13 19:30N 49°04' W 123°27'1718.5
2018-Feb-13 18:36N 49°13' W 123°49'  

Dump ship's entire track history